createdAt,value
2023-05-12T00:00:38.848Z,88.00
2023-05-12T00:03:08.867Z,88.77
2023-05-12T00:05:37.688Z,89.21
2023-05-12T00:08:06.628Z,88.23
2023-05-12T00:10:35.691Z,88.25
2023-05-12T00:13:04.257Z,88.41
2023-05-12T00:15:32.812Z,88.28
2023-05-12T00:18:01.587Z,87.64
2023-05-12T00:20:31.489Z,88.65
2023-05-12T00:22:59.906Z,88.46
2023-05-12T00:25:28.355Z,89.08
2023-05-12T00:27:56.784Z,90.08
2023-05-12T00:30:25.241Z,89.93
2023-05-12T00:32:53.906Z,89.52
2023-05-12T00:35:22.564Z,88.95
2023-05-12T00:37:52.353Z,88.90
2023-05-12T00:40:21.203Z,88.44
2023-05-12T00:42:49.871Z,89.16
2023-05-12T00:45:19.026Z,90.37
2023-05-12T00:47:48.031Z,90.31
2023-05-12T00:50:17.161Z,89.25
2023-05-12T00:52:45.885Z,88.85
2023-05-12T00:55:16.172Z,88.98
2023-05-12T00:57:45.346Z,89.01
2023-05-12T01:00:15.448Z,88.68
2023-05-12T01:02:44.222Z,89.83
2023-05-12T01:05:13.553Z,89.28
2023-05-12T01:07:44.338Z,89.56
2023-05-12T01:10:22.920Z,88.87
2023-05-12T01:12:51.606Z,89.68
2023-05-12T01:15:20.253Z,91.14
2023-05-12T01:17:55.121Z,90.85
2023-05-12T01:20:27.395Z,90.02
2023-05-12T01:22:56.915Z,88.87
2023-05-12T01:25:28.880Z,89.30
2023-05-12T01:27:59.036Z,88.37
2023-05-12T01:30:29.427Z,90.45
2023-05-12T01:32:58.402Z,91.76
2023-05-12T01:35:27.089Z,91.73
2023-05-12T01:37:55.512Z,92.22
2023-05-12T01:40:24.088Z,90.58
2023-05-12T01:42:52.529Z,92.50
2023-05-12T01:45:22.561Z,92.28
2023-05-12T01:47:51.102Z,92.87
2023-05-12T01:50:20.615Z,91.83
2023-05-12T01:52:49.247Z,92.05
2023-05-12T01:55:17.758Z,92.66
2023-05-12T01:57:46.196Z,91.72
2023-05-12T02:00:15.477Z,92.02
2023-05-12T02:02:45.446Z,92.18
2023-05-12T02:05:13.933Z,90.09
2023-05-12T02:07:42.589Z,91.03
2023-05-12T02:10:11.575Z,90.74
2023-05-12T02:12:40.036Z,89.66
2023-05-12T02:15:09.643Z,90.42
2023-05-12T02:17:38.183Z,89.75
2023-05-12T02:20:12.173Z,90.31
2023-05-12T02:22:40.817Z,90.99
2023-05-12T02:25:10.364Z,91.28
2023-05-12T02:27:39.014Z,90.25
2023-05-12T02:30:09.369Z,91.38
2023-05-12T02:32:38.102Z,90.52
2023-05-12T02:35:10.246Z,90.61
2023-05-12T02:37:38.766Z,91.33
2023-05-12T02:40:09.859Z,92.35
2023-05-12T02:42:39.264Z,91.67
2023-05-12T02:45:10.438Z,92.49
2023-05-12T02:47:39.189Z,93.63
2023-05-12T02:50:10.771Z,92.28
2023-05-12T02:52:39.453Z,91.54
2023-05-12T02:55:08.548Z,91.42
2023-05-12T02:57:37.208Z,90.53
2023-05-12T03:00:07.799Z,91.13
2023-05-12T03:02:37.583Z,91.02
2023-05-12T03:05:09.603Z,90.34
2023-05-12T03:07:38.474Z,91.50
2023-05-12T03:10:08.604Z,91.59
2023-05-12T03:12:37.153Z,92.44
2023-05-12T03:15:06.830Z,91.54
2023-05-12T03:17:35.750Z,91.99
2023-05-12T03:20:04.848Z,92.13
2023-05-12T03:22:34.881Z,92.72
2023-05-12T03:25:04.078Z,92.93
2023-05-12T03:27:33.671Z,92.25
2023-05-12T03:30:02.648Z,92.79
2023-05-12T03:32:31.221Z,93.10
2023-05-12T03:34:59.887Z,94.00
2023-05-12T03:37:28.537Z,94.13
2023-05-12T03:39:58.916Z,92.74
2023-05-12T03:42:27.599Z,92.34
2023-05-12T03:44:56.072Z,91.85
2023-05-12T03:47:25.574Z,90.73
2023-05-12T03:49:55.781Z,91.25
2023-05-12T03:52:24.452Z,90.45
2023-05-12T03:54:52.947Z,90.75
2023-05-12T03:57:22.821Z,91.70
2023-05-12T03:59:51.294Z,91.30
2023-05-12T04:02:19.882Z,92.44
2023-05-12T04:04:48.387Z,91.89
2023-05-12T04:07:16.879Z,91.09
2023-05-12T04:09:45.492Z,90.71
2023-05-12T04:12:14.033Z,90.41
2023-05-12T04:14:44.249Z,90.47
2023-05-12T04:17:12.778Z,90.81
2023-05-12T04:19:41.350Z,91.09
2023-05-12T04:22:09.797Z,90.49
2023-05-12T04:24:39.472Z,90.21
2023-05-12T04:27:08.593Z,91.07
2023-05-12T04:29:37.396Z,91.63
2023-05-12T04:32:09.105Z,90.72
2023-05-12T04:34:37.768Z,90.90
2023-05-12T04:37:06.682Z,91.48
2023-05-12T04:39:35.130Z,91.46
2023-05-12T04:42:03.569Z,90.33
2023-05-12T04:44:32.250Z,90.64
2023-05-12T04:47:00.978Z,91.26
2023-05-12T04:49:30.950Z,91.69
2023-05-12T04:51:59.398Z,90.59
2023-05-12T04:54:27.850Z,90.26
2023-05-12T04:56:56.360Z,90.96
2023-05-12T04:59:24.976Z,90.42
2023-05-12T05:01:54.050Z,89.64
2023-05-12T05:04:22.511Z,89.51
2023-05-12T05:06:52.366Z,89.29
2023-05-12T05:09:20.835Z,88.59
2023-05-12T05:11:49.708Z,88.56
2023-05-12T05:14:18.201Z,88.51
2023-05-12T05:16:46.730Z,89.10
2023-05-12T05:19:23.376Z,89.14
2023-05-12T05:22:05.265Z,89.08
2023-05-12T05:24:33.754Z,89.12
2023-05-12T05:27:02.250Z,89.17
2023-05-12T05:29:30.939Z,89.35
2023-05-12T05:31:59.462Z,88.69
2023-05-12T05:34:28.165Z,88.20
2023-05-12T05:36:56.666Z,87.67
2023-05-12T05:39:27.246Z,87.65
2023-05-12T05:41:56.214Z,87.89
2023-05-12T05:44:25.043Z,88.38
2023-05-12T05:46:53.685Z,88.52
2023-05-12T05:49:22.646Z,88.09
2023-05-12T05:51:51.547Z,87.95
2023-05-12T05:54:20.688Z,87.90
2023-05-12T05:56:50.790Z,88.77
2023-05-12T05:59:19.244Z,87.88
2023-05-12T06:01:48.274Z,87.87
2023-05-12T06:04:16.829Z,88.09
2023-05-12T06:06:45.683Z,87.50
2023-05-12T06:09:15.786Z,87.86
2023-05-12T06:11:44.277Z,86.67
2023-05-12T06:14:14.128Z,87.51
2023-05-12T06:16:42.863Z,86.35
2023-05-12T06:19:11.997Z,86.23
2023-05-12T06:21:41.625Z,86.37
2023-05-12T06:24:10.099Z,86.52
2023-05-12T06:26:38.969Z,86.95
2023-05-12T06:29:09.298Z,86.48
2023-05-12T06:31:39.210Z,86.48
2023-05-12T06:34:07.777Z,85.86
2023-05-12T06:36:36.264Z,86.31
2023-05-12T06:39:05.825Z,86.48
2023-05-12T06:41:34.322Z,85.46
2023-05-12T06:44:03.165Z,85.20
2023-05-12T06:46:32.271Z,85.14
2023-05-12T06:49:02.435Z,84.50
2023-05-12T06:51:30.915Z,84.50
2023-05-12T06:53:59.342Z,83.38
2023-05-12T06:56:29.890Z,84.30
2023-05-12T06:59:01.851Z,83.89
2023-05-12T07:01:31.338Z,84.39
2023-05-12T07:04:01.752Z,83.58
2023-05-12T07:06:30.349Z,84.18
2023-05-12T07:09:01.849Z,83.37
2023-05-12T07:11:30.897Z,83.29
2023-05-12T07:13:59.352Z,82.20
2023-05-12T07:16:29.626Z,83.18
2023-05-12T07:18:58.168Z,82.93
2023-05-12T07:21:29.629Z,83.21
2023-05-12T07:23:58.087Z,82.72
2023-05-12T07:26:28.739Z,82.27
2023-05-12T07:28:57.239Z,82.02
2023-05-12T07:31:25.715Z,81.85
2023-05-12T07:33:54.348Z,82.34
2023-05-12T07:36:23.160Z,82.96
2023-05-12T07:38:53.028Z,81.63
2023-05-12T07:41:21.638Z,81.65
2023-05-12T07:43:50.107Z,80.71
2023-05-12T07:46:18.628Z,78.96
2023-05-12T07:48:47.113Z,79.91
2023-05-12T07:51:15.607Z,80.31
2023-05-12T07:53:44.062Z,81.10
2023-05-12T07:56:13.889Z,80.47
2023-05-12T07:58:42.604Z,81.21
2023-05-12T08:01:11.793Z,82.40
2023-05-12T08:03:42.711Z,81.48
2023-05-12T08:06:11.307Z,81.89
2023-05-12T08:08:39.830Z,80.79
2023-05-12T08:11:08.331Z,79.83
2023-05-12T08:13:40.117Z,80.91
2023-05-12T08:16:08.617Z,81.53
2023-05-12T08:18:37.145Z,82.04
2023-05-12T08:21:06.868Z,82.07
2023-05-12T08:23:37.716Z,81.87
2023-05-12T08:26:09.111Z,82.63
2023-05-12T08:28:39.100Z,81.03
2023-05-12T08:31:08.586Z,81.22
2023-05-12T08:33:37.584Z,81.68
2023-05-12T08:36:07.001Z,82.06
2023-05-12T08:38:35.492Z,81.63
2023-05-12T08:41:17.976Z,80.34
2023-05-12T08:43:52.848Z,81.33
2023-05-12T08:46:23.051Z,80.55
2023-05-12T08:48:53.571Z,80.00
2023-05-12T08:51:24.959Z,78.63
2023-05-12T08:53:56.968Z,78.84
2023-05-12T08:58:59.416Z,79.12
2023-05-12T09:01:29.014Z,79.99
2023-05-12T09:03:57.566Z,80.08
2023-05-12T09:06:26.224Z,79.43
2023-05-12T09:08:54.886Z,77.74
2023-05-12T09:11:26.171Z,77.46
2023-05-12T09:14:04.249Z,79.64
2023-05-12T09:16:39.210Z,78.99
2023-05-12T09:19:07.920Z,79.28
2023-05-12T09:21:36.785Z,78.62
2023-05-12T09:24:09.190Z,78.51
2023-05-12T09:26:48.011Z,78.29
2023-05-12T09:29:31.669Z,78.28
2023-05-12T09:32:03.635Z,78.14
2023-05-12T09:34:38.860Z,77.41
2023-05-12T09:37:10.256Z,77.84
2023-05-12T09:39:38.772Z,79.23
2023-05-12T09:42:13.743Z,78.78
2023-05-12T09:44:43.712Z,77.60
2023-05-12T09:47:12.450Z,78.50
2023-05-12T09:49:49.719Z,77.86
2023-05-12T09:52:23.146Z,77.06
2023-05-12T09:54:52.728Z,76.34
2023-05-12T09:57:24.118Z,75.86
2023-05-12T09:59:54.952Z,75.01
2023-05-12T10:02:25.970Z,74.48
2023-05-12T10:05:02.450Z,74.13
2023-05-12T10:07:32.017Z,75.93
2023-05-12T10:10:05.593Z,76.69
2023-05-12T10:12:35.646Z,75.81
2023-05-12T10:15:10.016Z,75.57
2023-05-12T10:17:39.182Z,74.95
2023-05-12T10:20:10.356Z,75.93
2023-05-12T10:22:42.104Z,75.11
2023-05-12T10:25:11.526Z,74.99
2023-05-12T10:27:40.674Z,75.17
2023-05-12T10:30:13.222Z,76.07
2023-05-12T10:32:41.808Z,75.58
2023-05-12T10:35:12.696Z,74.97
2023-05-12T10:37:43.722Z,75.29
2023-05-12T10:40:12.662Z,75.41
2023-05-12T10:42:43.869Z,74.68
2023-05-12T10:45:23.360Z,73.79
2023-05-12T10:47:52.324Z,75.44
2023-05-12T10:50:29.092Z,75.34
2023-05-12T10:52:58.406Z,74.94
2023-05-12T10:55:38.066Z,74.93
2023-05-12T10:58:10.574Z,75.12
2023-05-12T11:00:55.565Z,74.92
2023-05-12T11:03:27.330Z,73.54
2023-05-12T11:06:02.810Z,73.60
2023-05-12T11:08:35.642Z,74.55
2023-05-12T11:11:04.729Z,71.84
2023-05-12T11:13:33.305Z,72.11
2023-05-12T11:16:03.188Z,73.23
2023-05-12T11:18:31.819Z,73.60
2023-05-12T11:21:00.351Z,73.30
2023-05-12T11:23:29.939Z,72.15
2023-05-12T11:25:58.769Z,72.05
2023-05-12T11:28:27.490Z,70.09
2023-05-12T11:30:56.193Z,66.92
2023-05-12T11:33:26.299Z,65.26
2023-05-12T11:35:54.764Z,67.64
2023-05-12T11:38:24.598Z,65.91
2023-05-12T11:40:53.201Z,66.87
2023-05-12T11:43:23.081Z,69.27
2023-05-12T11:45:51.953Z,69.03
2023-05-12T11:48:21.746Z,69.11
2023-05-12T11:50:52.510Z,69.98
2023-05-12T11:53:21.096Z,69.37
2023-05-12T11:55:51.391Z,68.95
2023-05-12T11:58:22.175Z,69.92
2023-05-12T12:00:50.825Z,70.32
2023-05-12T12:03:19.524Z,67.17
2023-05-12T12:06:01.878Z,70.57
2023-05-12T12:08:30.725Z,70.41
2023-05-12T12:11:00.937Z,71.86
2023-05-12T12:13:31.554Z,71.03
2023-05-12T12:16:00.084Z,68.37
2023-05-12T12:18:28.626Z,69.38
2023-05-12T12:20:57.129Z,71.99
2023-05-12T12:23:27.022Z,70.53
2023-05-12T12:25:55.496Z,70.65
2023-05-12T12:28:24.251Z,69.94
2023-05-12T12:30:52.922Z,70.82
2023-05-12T12:33:21.503Z,70.97
2023-05-12T12:35:50.179Z,70.85
2023-05-12T12:38:18.726Z,70.39
2023-05-12T12:40:48.751Z,71.43
2023-05-12T12:43:17.351Z,71.05
2023-05-12T12:45:46.186Z,71.72
2023-05-12T12:48:15.037Z,73.62
2023-05-12T12:50:43.711Z,74.75
2023-05-12T12:53:12.279Z,77.00
2023-05-12T12:55:40.741Z,77.66
2023-05-12T12:58:10.575Z,79.47
2023-05-12T13:00:39.203Z,81.39
2023-05-12T13:03:08.179Z,80.91
2023-05-12T13:05:37.129Z,81.26
2023-05-12T13:08:05.779Z,80.36
2023-05-12T13:10:34.573Z,79.76
2023-05-12T13:13:03.114Z,79.48
2023-05-12T13:15:33.165Z,81.17
2023-05-12T13:18:01.715Z,80.54
2023-05-12T13:20:30.297Z,81.44
2023-05-12T13:22:58.869Z,80.86
2023-05-12T13:25:27.363Z,81.76
2023-05-12T13:27:56.083Z,80.26
2023-05-12T13:30:25.228Z,81.75
2023-05-12T13:32:55.501Z,83.30
2023-05-12T13:35:24.034Z,81.55
2023-05-12T13:37:52.548Z,81.93
2023-05-12T13:40:21.005Z,82.08
2023-05-12T13:42:49.469Z,81.72
2023-05-12T13:45:19.546Z,83.24
2023-05-12T13:47:48.724Z,81.63
2023-05-12T13:50:19.056Z,82.05
2023-05-12T13:52:48.604Z,81.35
2023-05-12T13:55:21.390Z,82.43
2023-05-12T13:57:50.618Z,79.50
2023-05-12T14:00:20.487Z,80.99
2023-05-12T14:02:49.125Z,79.89
2023-05-12T14:05:19.385Z,77.33
2023-05-12T14:07:48.252Z,78.88
2023-05-12T14:10:17.247Z,80.21
2023-05-12T14:12:46.707Z,78.81
2023-05-12T14:15:28.900Z,78.56
2023-05-12T14:18:01.392Z,80.10
2023-05-12T14:20:31.376Z,79.40
2023-05-12T14:22:59.846Z,76.64
2023-05-12T14:25:30.905Z,77.16
2023-05-12T14:27:59.923Z,77.11
2023-05-12T14:30:28.446Z,73.24
2023-05-12T14:32:57.109Z,72.57
2023-05-12T14:35:27.845Z,74.50
2023-05-12T14:37:58.068Z,74.76
2023-05-12T14:40:27.339Z,73.57
2023-05-12T14:42:56.096Z,75.24
2023-05-12T14:45:25.875Z,75.38
2023-05-12T14:47:54.685Z,74.27
2023-05-12T14:50:24.128Z,76.00
2023-05-12T14:52:52.675Z,76.68
2023-05-12T14:55:22.998Z,75.90
2023-05-12T14:57:51.699Z,76.37
2023-05-12T15:00:21.371Z,76.37
2023-05-12T15:02:49.996Z,76.27
2023-05-12T15:05:19.094Z,72.49
2023-05-12T15:07:47.774Z,75.83
2023-05-12T15:10:16.204Z,75.22
2023-05-12T15:12:46.024Z,73.29
2023-05-12T15:15:14.481Z,72.64
2023-05-12T15:17:42.910Z,73.13
2023-05-12T15:20:12.300Z,70.95
2023-05-12T15:22:40.996Z,71.63
2023-05-12T15:25:11.659Z,73.00
2023-05-12T15:27:40.672Z,73.69
2023-05-12T15:30:13.088Z,72.10
2023-05-12T15:32:41.832Z,73.41
2023-05-12T15:35:11.227Z,67.63
2023-05-12T15:37:39.695Z,70.00
2023-05-12T15:40:10.425Z,72.02
2023-05-12T15:42:38.874Z,70.95
2023-05-12T15:45:10.568Z,73.75
2023-05-12T15:47:39.112Z,72.70
2023-05-12T15:50:10.619Z,72.93
2023-05-12T15:52:39.178Z,73.50
2023-05-12T15:55:08.472Z,73.47
2023-05-12T15:57:36.955Z,73.26
2023-05-12T16:00:07.082Z,73.33
2023-05-12T16:02:36.957Z,74.49
2023-05-12T16:05:06.159Z,73.95
2023-05-12T16:07:34.909Z,73.70
2023-05-12T16:10:03.681Z,75.88
2023-05-12T16:12:32.465Z,76.43
2023-05-12T16:15:00.946Z,77.02
2023-05-12T16:17:29.793Z,79.44
2023-05-12T16:19:59.674Z,77.04
2023-05-12T16:22:28.132Z,77.45
2023-05-12T16:24:57.795Z,78.31
2023-05-12T16:27:26.917Z,79.01
2023-05-12T16:29:55.597Z,77.39
2023-05-12T16:32:24.127Z,78.32
2023-05-12T16:34:52.633Z,78.83
2023-05-12T16:37:22.886Z,78.94
2023-05-12T16:39:51.562Z,80.05
2023-05-12T16:42:20.238Z,79.45
2023-05-12T16:44:48.911Z,80.08
2023-05-12T16:47:17.403Z,79.74
2023-05-12T16:49:45.893Z,80.01
2023-05-12T16:52:14.922Z,80.09
2023-05-12T16:54:44.740Z,79.86
2023-05-12T16:57:13.335Z,79.87
2023-05-12T16:59:42.156Z,80.59
2023-05-12T17:02:10.935Z,80.34
2023-05-12T17:04:39.462Z,79.56
2023-05-12T17:07:07.969Z,79.18
2023-05-12T17:09:36.426Z,79.27
2023-05-12T17:12:08.325Z,80.19
2023-05-12T17:14:37.325Z,80.66
2023-05-12T17:17:06.396Z,81.57
2023-05-12T17:19:35.387Z,81.38
2023-05-12T17:22:04.182Z,81.04
2023-05-12T17:24:32.621Z,81.44
2023-05-12T17:27:01.359Z,80.77
2023-05-12T17:29:31.244Z,81.39
2023-05-12T17:32:00.080Z,81.62
2023-05-12T17:34:28.586Z,82.10
2023-05-12T17:36:57.140Z,81.18
2023-05-12T17:39:25.849Z,82.37
2023-05-12T17:41:54.357Z,82.51
2023-05-12T17:44:23.035Z,82.34
2023-05-12T17:46:53.099Z,81.11
2023-05-12T17:49:21.667Z,82.84
2023-05-12T17:51:50.676Z,82.54
2023-05-12T17:54:19.126Z,83.18
2023-05-12T17:56:48.272Z,83.64
2023-05-12T17:59:16.703Z,83.08
2023-05-12T18:01:45.156Z,82.04
2023-05-12T18:04:15.096Z,83.14
2023-05-12T18:06:44.130Z,83.93
2023-05-12T18:09:13.692Z,84.05
2023-05-12T18:11:42.767Z,82.86
2023-05-12T18:14:11.230Z,84.20
2023-05-12T18:16:39.646Z,84.63
2023-05-12T18:19:08.804Z,84.13
2023-05-12T18:21:38.695Z,83.93
2023-05-12T18:24:07.770Z,83.88
2023-05-12T18:26:36.270Z,83.98
2023-05-12T18:29:05.016Z,85.94
2023-05-12T18:31:34.374Z,85.77
2023-05-12T18:34:03.089Z,85.78
2023-05-12T18:36:31.591Z,85.74
2023-05-12T18:39:01.437Z,86.58
2023-05-12T18:41:29.915Z,86.37
2023-05-12T18:43:58.351Z,85.61
2023-05-12T18:46:27.074Z,85.75
2023-05-12T18:48:55.568Z,86.81
2023-05-12T18:51:25.253Z,86.16
2023-05-12T18:53:53.677Z,85.10
2023-05-12T18:56:23.558Z,85.78
2023-05-12T18:58:52.005Z,85.34
2023-05-12T19:01:20.590Z,86.19
2023-05-12T19:03:49.039Z,86.40
2023-05-12T19:06:18.282Z,85.83
2023-05-12T19:08:46.750Z,86.33
2023-05-12T19:11:15.426Z,86.82
2023-05-12T19:13:47.471Z,85.82
2023-05-12T19:16:16.211Z,86.46
2023-05-12T19:18:44.871Z,86.50
2023-05-12T19:21:13.957Z,86.46
2023-05-12T19:23:42.474Z,87.17
2023-05-12T19:26:11.206Z,86.94
2023-05-12T19:28:40.001Z,88.29
2023-05-12T19:31:09.894Z,86.85
2023-05-12T19:33:38.534Z,87.05
2023-05-12T19:36:07.971Z,86.44
2023-05-12T19:38:37.110Z,87.76
2023-05-12T19:41:05.627Z,87.57
2023-05-12T19:43:34.096Z,87.67
2023-05-12T19:46:02.693Z,87.67
2023-05-12T19:48:32.690Z,87.79
2023-05-12T19:51:01.216Z,88.52
2023-05-12T19:53:29.711Z,88.38
2023-05-12T19:55:58.147Z,86.92
2023-05-12T19:58:26.976Z,88.80
2023-05-12T20:00:56.548Z,87.88
2023-05-12T20:03:25.270Z,88.68
2023-05-12T20:05:55.219Z,88.39
2023-05-12T20:08:23.688Z,89.00
2023-05-12T20:10:52.190Z,87.57
2023-05-12T20:13:20.716Z,87.63
2023-05-12T20:15:49.180Z,87.34
2023-05-12T20:18:17.903Z,88.11
2023-05-12T20:20:46.360Z,90.15
2023-05-12T20:23:16.495Z,90.28
2023-05-12T20:25:44.944Z,90.20
2023-05-12T20:31:03.474Z,88.83
2023-05-12T20:33:32.091Z,90.00
2023-05-12T20:36:00.607Z,89.14
2023-05-12T20:38:30.490Z,89.33
2023-05-12T20:41:04.861Z,89.17
2023-05-12T20:43:33.907Z,89.69
2023-05-12T20:46:04.807Z,89.67
2023-05-12T20:48:33.642Z,89.30
2023-05-12T20:51:12.490Z,89.84
2023-05-12T20:53:42.357Z,89.39
2023-05-12T20:56:12.923Z,89.27
2023-05-12T20:58:41.606Z,90.35
2023-05-12T21:01:10.107Z,90.18
2023-05-12T21:03:38.612Z,88.60
2023-05-12T21:06:07.702Z,89.74
2023-05-12T21:08:36.222Z,88.94
2023-05-12T21:11:14.245Z,90.14
2023-05-12T21:13:42.986Z,91.11
2023-05-12T21:16:11.532Z,91.16
2023-05-12T21:18:40.224Z,90.72
2023-05-12T21:21:09.487Z,92.99
2023-05-12T21:23:38.356Z,91.21
2023-05-12T21:26:10.354Z,93.49
2023-05-12T21:28:39.012Z,91.49
2023-05-12T21:31:07.701Z,90.57
2023-05-12T21:33:36.430Z,92.43
2023-05-12T21:36:05.723Z,93.05
2023-05-12T21:38:34.214Z,92.54
2023-05-12T21:41:02.729Z,92.22
2023-05-12T21:43:32.576Z,94.69
2023-05-12T21:46:04.450Z,94.20
2023-05-12T21:48:33.434Z,94.54
2023-05-12T21:51:03.758Z,93.30
2023-05-12T21:53:32.317Z,93.85
2023-05-12T21:56:00.832Z,94.47
2023-05-12T21:58:29.367Z,95.70
2023-05-12T22:00:59.911Z,92.78
2023-05-12T22:03:28.691Z,93.85
2023-05-12T22:05:58.301Z,93.35
2023-05-12T22:08:27.033Z,95.45
2023-05-12T22:10:55.762Z,94.03
2023-05-12T22:13:24.201Z,94.01
2023-05-12T22:15:53.533Z,93.87
2023-05-12T22:18:23.561Z,92.37
2023-05-12T22:20:52.099Z,93.46
2023-05-12T22:23:20.530Z,94.19
2023-05-12T22:25:48.990Z,93.18
2023-05-12T22:28:18.086Z,93.29
2023-05-12T22:30:46.570Z,93.13
2023-05-12T22:33:15.040Z,93.63
2023-05-12T22:35:44.888Z,93.49
2023-05-12T22:38:13.525Z,91.54
2023-05-12T22:40:42.933Z,90.93
2023-05-12T22:43:12.704Z,90.88
2023-05-12T22:45:41.293Z,91.27
2023-05-12T22:48:09.797Z,91.46
2023-05-12T22:50:38.322Z,90.34
2023-05-12T22:53:08.135Z,91.40
2023-05-12T22:55:36.567Z,90.91
2023-05-12T23:00:54.247Z,90.34
2023-05-12T23:03:23.003Z,90.20
2023-05-12T23:05:51.450Z,91.67
2023-05-12T23:08:21.303Z,93.03
2023-05-12T23:10:49.761Z,93.41
2023-05-12T23:13:18.266Z,93.55
2023-05-12T23:15:46.737Z,91.82
2023-05-12T23:18:15.450Z,91.61
2023-05-12T23:20:44.300Z,93.60
2023-05-12T23:23:12.749Z,93.25
2023-05-12T23:25:43.015Z,94.17
2023-05-12T23:28:11.511Z,93.58
2023-05-12T23:30:40.212Z,92.14
2023-05-12T23:33:08.735Z,93.43
2023-05-12T23:35:37.241Z,93.90
2023-05-12T23:38:05.768Z,93.62
2023-05-12T23:40:39.388Z,91.76
2023-05-12T23:43:09.873Z,91.42
2023-05-12T23:45:38.412Z,92.25
2023-05-12T23:48:07.663Z,92.92
2023-05-12T23:50:36.646Z,93.05
2023-05-12T23:53:05.141Z,92.04
2023-05-12T23:55:34.259Z,91.26
2023-05-12T23:58:02.707Z,92.10
